sensor_id;sensor_type;location;lat;lon;timestamp;temperature;humidity
44537;DHT22;30245;51.966;6.292;2022-09-09T00:00:26;21.00;61.90
44537;DHT22;30245;51.966;6.292;2022-09-09T00:03:16;20.90;62.10
44537;DHT22;30245;51.966;6.292;2022-09-09T00:06:24;20.90;62.20
44537;DHT22;30245;51.966;6.292;2022-09-09T00:09:06;20.90;62.10
44537;DHT22;30245;51.966;6.292;2022-09-09T00:20:38;20.90;61.90
44537;DHT22;30245;51.966;6.292;2022-09-09T00:28:26;21.00;61.40
44537;DHT22;30245;51.966;6.292;2022-09-09T00:30:52;20.90;61.40
44537;DHT22;30245;51.966;6.292;2022-09-09T00:33:20;20.90;61.60
44537;DHT22;30245;51.966;6.292;2022-09-09T00:35:56;20.80;61.80
44537;DHT22;30245;51.966;6.292;2022-09-09T00:38:45;20.70;62.00
44537;DHT22;30245;51.966;6.292;2022-09-09T00:44:23;20.60;62.30
44537;DHT22;30245;51.966;6.292;2022-09-09T00:57:38;20.70;61.40
44537;DHT22;30245;51.966;6.292;2022-09-09T01:00:35;20.70;61.60
44537;DHT22;30245;51.966;6.292;2022-09-09T01:03:51;20.60;61.60
44537;DHT22;30245;51.966;6.292;2022-09-09T01:12:17;20.60;61.50
44537;DHT22;30245;51.966;6.292;2022-09-09T01:14:48;20.50;61.60
44537;DHT22;30245;51.966;6.292;2022-09-09T01:17:23;20.50;61.70
44537;DHT22;30245;51.966;6.292;2022-09-09T01:27:57;20.40;61.80
44537;DHT22;30245;51.966;6.292;2022-09-09T01:30:25;20.40;61.80
44537;DHT22;30245;51.966;6.292;2022-09-09T01:32:56;20.40;61.80
44537;DHT22;30245;51.966;6.292;2022-09-09T01:35:33;20.30;61.90
44537;DHT22;30245;51.966;6.292;2022-09-09T01:38:02;20.30;61.90
44537;DHT22;30245;51.966;6.292;2022-09-09T01:40:27;20.30;61.70
44537;DHT22;30245;51.966;6.292;2022-09-09T01:42:54;20.30;61.70
44537;DHT22;30245;51.966;6.292;2022-09-09T01:45:21;20.40;61.70
44537;DHT22;30245;51.966;6.292;2022-09-09T01:47:47;20.30;61.90
44537;DHT22;30245;51.966;6.292;2022-09-09T01:50:15;20.30;61.90
44537;DHT22;30245;51.966;6.292;2022-09-09T01:52:42;20.30;61.90
44537;DHT22;30245;51.966;6.292;2022-09-09T01:55:08;20.40;61.80
44537;DHT22;30245;51.966;6.292;2022-09-09T01:57:55;20.30;61.70
44537;DHT22;30245;51.966;6.292;2022-09-09T02:00:24;20.20;61.90
44537;DHT22;30245;51.966;6.292;2022-09-09T02:05:38;20.30;62.00
44537;DHT22;30245;51.966;6.292;2022-09-09T02:08:17;20.30;61.60
44537;DHT22;30245;51.966;6.292;2022-09-09T02:10:53;20.40;61.50
44537;DHT22;30245;51.966;6.292;2022-09-09T02:13:21;20.30;61.60
44537;DHT22;30245;51.966;6.292;2022-09-09T02:15:55;20.30;61.70
44537;DHT22;30245;51.966;6.292;2022-09-09T02:18:26;20.20;61.80
44537;DHT22;30245;51.966;6.292;2022-09-09T02:20:53;20.10;62.00
44537;DHT22;30245;51.966;6.292;2022-09-09T02:23:19;20.10;62.00
44537;DHT22;30245;51.966;6.292;2022-09-09T02:25:46;20.10;62.20
44537;DHT22;30245;51.966;6.292;2022-09-09T02:28:13;20.00;62.30
44537;DHT22;30245;51.966;6.292;2022-09-09T02:30:41;20.00;62.40
44537;DHT22;30245;51.966;6.292;2022-09-09T02:33:09;20.00;62.30
44537;DHT22;30245;51.966;6.292;2022-09-09T02:35:36;20.20;62.20
44537;DHT22;30245;51.966;6.292;2022-09-09T02:38:07;20.20;61.90
44537;DHT22;30245;51.966;6.292;2022-09-09T02:40:34;20.20;61.80
44537;DHT22;30245;51.966;6.292;2022-09-09T02:43:00;20.20;61.60
44537;DHT22;30245;51.966;6.292;2022-09-09T02:45:36;20.20;61.60
44537;DHT22;30245;51.966;6.292;2022-09-09T02:48:14;20.20;61.70
44537;DHT22;30245;51.966;6.292;2022-09-09T02:51:23;20.20;61.70
44537;DHT22;30245;51.966;6.292;2022-09-09T02:54:09;20.10;61.70
44537;DHT22;30245;51.966;6.292;2022-09-09T02:56:42;20.10;62.50
44537;DHT22;30245;51.966;6.292;2022-09-09T02:59:09;20.10;61.80
44537;DHT22;30245;51.966;6.292;2022-09-09T03:01:35;20.10;61.80
44537;DHT22;30245;51.966;6.292;2022-09-09T03:04:02;20.00;61.90
44537;DHT22;30245;51.966;6.292;2022-09-09T03:06:28;20.00;62.00
44537;DHT22;30245;51.966;6.292;2022-09-09T03:08:53;20.00;62.10
44537;DHT22;30245;51.966;6.292;2022-09-09T03:11:19;20.00;62.20
44537;DHT22;30245;51.966;6.292;2022-09-09T03:13:45;19.90;62.20
44537;DHT22;30245;51.966;6.292;2022-09-09T03:16:10;19.90;62.30
44537;DHT22;30245;51.966;6.292;2022-09-09T03:18:36;19.90;62.30
44537;DHT22;30245;51.966;6.292;2022-09-09T03:21:01;19.90;62.40
44537;DHT22;30245;51.966;6.292;2022-09-09T03:23:27;19.90;62.30
44537;DHT22;30245;51.966;6.292;2022-09-09T03:25:53;19.90;62.20
44537;DHT22;30245;51.966;6.292;2022-09-09T03:28:22;19.90;62.20
44537;DHT22;30245;51.966;6.292;2022-09-09T03:30:48;19.90;62.40
44537;DHT22;30245;51.966;6.292;2022-09-09T03:33:14;19.90;62.50
44537;DHT22;30245;51.966;6.292;2022-09-09T03:35:45;19.90;62.40
44537;DHT22;30245;51.966;6.292;2022-09-09T03:38:12;19.90;62.50
44537;DHT22;30245;51.966;6.292;2022-09-09T03:40:38;19.90;62.40
44537;DHT22;30245;51.966;6.292;2022-09-09T03:43:04;19.90;62.40
44537;DHT22;30245;51.966;6.292;2022-09-09T03:45:30;19.90;62.50
44537;DHT22;30245;51.966;6.292;2022-09-09T03:47:55;19.90;62.60
44537;DHT22;30245;51.966;6.292;2022-09-09T03:50:22;19.90;62.70
44537;DHT22;30245;51.966;6.292;2022-09-09T03:52:49;19.90;63.30
44537;DHT22;30245;51.966;6.292;2022-09-09T03:55:14;19.90;62.50
44537;DHT22;30245;51.966;6.292;2022-09-09T03:57:40;20.00;62.40
44537;DHT22;30245;51.966;6.292;2022-09-09T04:00:07;20.00;62.30
44537;DHT22;30245;51.966;6.292;2022-09-09T04:02:33;20.00;62.20
44537;DHT22;30245;51.966;6.292;2022-09-09T04:04:59;20.00;62.20
44537;DHT22;30245;51.966;6.292;2022-09-09T04:07:25;20.10;62.20
44537;DHT22;30245;51.966;6.292;2022-09-09T04:09:52;20.10;62.30
44537;DHT22;30245;51.966;6.292;2022-09-09T04:12:18;20.00;62.50
44537;DHT22;30245;51.966;6.292;2022-09-09T04:14:44;20.00;62.60
44537;DHT22;30245;51.966;6.292;2022-09-09T04:17:09;20.00;62.60
44537;DHT22;30245;51.966;6.292;2022-09-09T04:19:35;20.10;62.60
44537;DHT22;30245;51.966;6.292;2022-09-09T04:22:00;20.00;62.50
44537;DHT22;30245;51.966;6.292;2022-09-09T04:24:26;20.10;62.60
44537;DHT22;30245;51.966;6.292;2022-09-09T04:26:54;20.20;62.50
44537;DHT22;30245;51.966;6.292;2022-09-09T04:29:20;20.20;62.40
44537;DHT22;30245;51.966;6.292;2022-09-09T04:31:46;20.20;62.30
44537;DHT22;30245;51.966;6.292;2022-09-09T04:34:11;20.30;62.30
44537;DHT22;30245;51.966;6.292;2022-09-09T04:36:37;20.30;62.40
44537;DHT22;30245;51.966;6.292;2022-09-09T04:39:03;20.30;62.40
44537;DHT22;30245;51.966;6.292;2022-09-09T04:41:28;20.30;62.60
44537;DHT22;30245;51.966;6.292;2022-09-09T04:43:54;20.30;62.70
44537;DHT22;30245;51.966;6.292;2022-09-09T04:46:21;20.30;62.80
44537;DHT22;30245;51.966;6.292;2022-09-09T04:48:48;20.20;62.90
44537;DHT22;30245;51.966;6.292;2022-09-09T04:51:14;20.30;62.90
44537;DHT22;30245;51.966;6.292;2022-09-09T04:53:40;20.40;62.90
44537;DHT22;30245;51.966;6.292;2022-09-09T04:56:08;20.30;62.90
44537;DHT22;30245;51.966;6.292;2022-09-09T04:58:35;20.30;62.90
44537;DHT22;30245;51.966;6.292;2022-09-09T05:01:09;20.30;62.90
44537;DHT22;30245;51.966;6.292;2022-09-09T05:03:35;20.40;63.00
44537;DHT22;30245;51.966;6.292;2022-09-09T05:06:05;20.40;63.10
44537;DHT22;30245;51.966;6.292;2022-09-09T05:08:31;20.40;63.10
44537;DHT22;30245;51.966;6.292;2022-09-09T05:10:57;20.50;63.20
44537;DHT22;30245;51.966;6.292;2022-09-09T05:13:25;20.50;63.20
44537;DHT22;30245;51.966;6.292;2022-09-09T05:15:54;20.50;63.10
44537;DHT22;30245;51.966;6.292;2022-09-09T05:18:20;20.60;63.20
44537;DHT22;30245;51.966;6.292;2022-09-09T05:20:48;20.60;63.20
44537;DHT22;30245;51.966;6.292;2022-09-09T05:23:14;20.60;63.20
44537;DHT22;30245;51.966;6.292;2022-09-09T05:25:40;20.60;63.40
44537;DHT22;30245;51.966;6.292;2022-09-09T05:28:08;20.60;63.40
44537;DHT22;30245;51.966;6.292;2022-09-09T05:30:34;20.50;63.50
44537;DHT22;30245;51.966;6.292;2022-09-09T05:33:00;20.50;63.60
44537;DHT22;30245;51.966;6.292;2022-09-09T05:35:26;20.40;63.90
44537;DHT22;30245;51.966;6.292;2022-09-09T05:37:52;20.40;64.10
44537;DHT22;30245;51.966;6.292;2022-09-09T05:40:17;20.40;64.20
44537;DHT22;30245;51.966;6.292;2022-09-09T05:42:43;20.40;64.20
44537;DHT22;30245;51.966;6.292;2022-09-09T05:45:09;20.40;64.20
44537;DHT22;30245;51.966;6.292;2022-09-09T05:47:36;20.40;64.30
44537;DHT22;30245;51.966;6.292;2022-09-09T05:50:02;20.40;64.30
44537;DHT22;30245;51.966;6.292;2022-09-09T05:52:28;20.40;64.50
44537;DHT22;30245;51.966;6.292;2022-09-09T05:54:54;20.40;64.70
44537;DHT22;30245;51.966;6.292;2022-09-09T05:57:20;20.50;64.70
44537;DHT22;30245;51.966;6.292;2022-09-09T05:59:46;20.50;64.50
44537;DHT22;30245;51.966;6.292;2022-09-09T06:02:12;20.60;64.30
44537;DHT22;30245;51.966;6.292;2022-09-09T06:04:38;20.60;64.20
44537;DHT22;30245;51.966;6.292;2022-09-09T06:07:05;20.70;64.20
44537;DHT22;30245;51.966;6.292;2022-09-09T06:09:30;20.80;64.20
44537;DHT22;30245;51.966;6.292;2022-09-09T06:11:56;20.80;64.20
44537;DHT22;30245;51.966;6.292;2022-09-09T06:14:22;20.80;64.00
44537;DHT22;30245;51.966;6.292;2022-09-09T06:16:48;20.80;64.00
44537;DHT22;30245;51.966;6.292;2022-09-09T06:19:14;20.90;64.10
44537;DHT22;30245;51.966;6.292;2022-09-09T06:21:39;20.90;63.90
44537;DHT22;30245;51.966;6.292;2022-09-09T06:24:06;21.00;63.80
44537;DHT22;30245;51.966;6.292;2022-09-09T06:26:37;21.00;63.80
44537;DHT22;30245;51.966;6.292;2022-09-09T06:29:06;21.00;63.70
44537;DHT22;30245;51.966;6.292;2022-09-09T06:31:33;21.10;63.70
44537;DHT22;30245;51.966;6.292;2022-09-09T06:34:00;21.10;63.70
44537;DHT22;30245;51.966;6.292;2022-09-09T06:36:33;21.20;63.60
44537;DHT22;30245;51.966;6.292;2022-09-09T06:39:00;21.30;63.30
44537;DHT22;30245;51.966;6.292;2022-09-09T06:41:28;21.40;63.10
44537;DHT22;30245;51.966;6.292;2022-09-09T06:43:54;21.50;62.90
44537;DHT22;30245;51.966;6.292;2022-09-09T06:46:25;21.50;62.80
44537;DHT22;30245;51.966;6.292;2022-09-09T06:48:54;21.50;62.80
44537;DHT22;30245;51.966;6.292;2022-09-09T06:51:26;21.60;62.90
44537;DHT22;30245;51.966;6.292;2022-09-09T06:53:54;21.60;62.90
44537;DHT22;30245;51.966;6.292;2022-09-09T06:56:27;21.60;62.90
44537;DHT22;30245;51.966;6.292;2022-09-09T06:58:55;21.70;62.90
44537;DHT22;30245;51.966;6.292;2022-09-09T07:01:23;21.70;62.80
44537;DHT22;30245;51.966;6.292;2022-09-09T07:03:51;21.80;62.90
44537;DHT22;30245;51.966;6.292;2022-09-09T07:06:28;21.90;62.90
44537;DHT22;30245;51.966;6.292;2022-09-09T07:08:56;21.90;62.70
44537;DHT22;30245;51.966;6.292;2022-09-09T07:11:28;21.80;62.90
44537;DHT22;30245;51.966;6.292;2022-09-09T07:13:55;21.90;63.00
44537;DHT22;30245;51.966;6.292;2022-09-09T07:16:22;22.00;62.80
44537;DHT22;30245;51.966;6.292;2022-09-09T07:18:50;22.00;62.40
44537;DHT22;30245;51.966;6.292;2022-09-09T07:21:16;22.00;62.40
44537;DHT22;30245;51.966;6.292;2022-09-09T07:23:42;21.90;63.20
44537;DHT22;30245;51.966;6.292;2022-09-09T07:26:13;22.00;62.40
44537;DHT22;30245;51.966;6.292;2022-09-09T07:28:39;22.10;62.30
44537;DHT22;30245;51.966;6.292;2022-09-09T07:31:08;22.00;62.10
44537;DHT22;30245;51.966;6.292;2022-09-09T07:33:39;22.10;62.10
44537;DHT22;30245;51.966;6.292;2022-09-09T07:36:09;22.10;62.00
44537;DHT22;30245;51.966;6.292;2022-09-09T07:38:42;22.00;62.00
44537;DHT22;30245;51.966;6.292;2022-09-09T07:41:11;22.00;61.80
44537;DHT22;30245;51.966;6.292;2022-09-09T07:43:42;21.90;62.00
44537;DHT22;30245;51.966;6.292;2022-09-09T07:46:09;21.80;62.10
44537;DHT22;30245;51.966;6.292;2022-09-09T07:48:35;21.90;62.10
44537;DHT22;30245;51.966;6.292;2022-09-09T07:51:10;21.90;62.10
44537;DHT22;30245;51.966;6.292;2022-09-09T07:53:37;21.90;61.90
44537;DHT22;30245;51.966;6.292;2022-09-09T07:56:10;21.90;61.80
44537;DHT22;30245;51.966;6.292;2022-09-09T07:58:40;21.90;61.90
44537;DHT22;30245;51.966;6.292;2022-09-09T08:01:09;22.00;61.60
44537;DHT22;30245;51.966;6.292;2022-09-09T08:03:35;22.10;61.40
44537;DHT22;30245;51.966;6.292;2022-09-09T08:06:05;22.10;61.30
44537;DHT22;30245;51.966;6.292;2022-09-09T08:08:32;22.20;61.20
44537;DHT22;30245;51.966;6.292;2022-09-09T08:11:09;22.20;61.10
44537;DHT22;30245;51.966;6.292;2022-09-09T08:13:39;22.20;61.00
44537;DHT22;30245;51.966;6.292;2022-09-09T08:16:11;22.30;60.60
44537;DHT22;30245;51.966;6.292;2022-09-09T08:18:37;22.30;60.50
44537;DHT22;30245;51.966;6.292;2022-09-09T08:21:15;22.40;60.20
44537;DHT22;30245;51.966;6.292;2022-09-09T08:23:43;22.40;59.90
44537;DHT22;30245;51.966;6.292;2022-09-09T08:26:17;22.40;59.80
44537;DHT22;30245;51.966;6.292;2022-09-09T08:28:43;22.50;59.90
44537;DHT22;30245;51.966;6.292;2022-09-09T08:31:11;22.70;59.30
44537;DHT22;30245;51.966;6.292;2022-09-09T08:33:38;22.70;59.10
44537;DHT22;30245;51.966;6.292;2022-09-09T08:36:05;22.70;58.90
44537;DHT22;30245;51.966;6.292;2022-09-09T08:38:32;22.80;58.30
44537;DHT22;30245;51.966;6.292;2022-09-09T08:41:30;22.70;58.20
44537;DHT22;30245;51.966;6.292;2022-09-09T08:44:23;22.70;58.10
44537;DHT22;30245;51.966;6.292;2022-09-09T08:52:19;22.80;57.60
44537;DHT22;30245;51.966;6.292;2022-09-09T08:54:46;22.90;57.40
44537;DHT22;30245;51.966;6.292;2022-09-09T08:57:20;23.10;56.80
44537;DHT22;30245;51.966;6.292;2022-09-09T08:59:46;23.10;56.40
44537;DHT22;30245;51.966;6.292;2022-09-09T09:02:19;23.20;56.50
44537;DHT22;30245;51.966;6.292;2022-09-09T09:05:09;23.20;56.50
44537;DHT22;30245;51.966;6.292;2022-09-09T09:10:20;23.20;56.60
44537;DHT22;30245;51.966;6.292;2022-09-09T09:12:51;23.20;56.00
44537;DHT22;30245;51.966;6.292;2022-09-09T09:15:21;23.30;55.80
44537;DHT22;30245;51.966;6.292;2022-09-09T09:17:48;23.40;55.80
44537;DHT22;30245;51.966;6.292;2022-09-09T09:20:16;23.50;55.70
44537;DHT22;30245;51.966;6.292;2022-09-09T09:22:49;23.60;55.40
44537;DHT22;30245;51.966;6.292;2022-09-09T09:25:38;23.60;55.40
44537;DHT22;30245;51.966;6.292;2022-09-09T09:28:12;23.70;55.20
44537;DHT22;30245;51.966;6.292;2022-09-09T09:30:47;23.70;55.20
44537;DHT22;30245;51.966;6.292;2022-09-09T09:36:08;23.60;55.20
44537;DHT22;30245;51.966;6.292;2022-09-09T09:38:35;23.50;55.40
44537;DHT22;30245;51.966;6.292;2022-09-09T09:41:01;23.50;55.30
44537;DHT22;30245;51.966;6.292;2022-09-09T09:43:36;23.50;55.50
44537;DHT22;30245;51.966;6.292;2022-09-09T09:46:05;23.60;55.50
44537;DHT22;30245;51.966;6.292;2022-09-09T09:48:42;23.60;55.00
44537;DHT22;30245;51.966;6.292;2022-09-09T09:51:13;23.70;54.90
44537;DHT22;30245;51.966;6.292;2022-09-09T09:53:42;23.80;54.40
44537;DHT22;30245;51.966;6.292;2022-09-09T09:56:11;23.70;53.80
44537;DHT22;30245;51.966;6.292;2022-09-09T10:01:30;23.60;53.50
44537;DHT22;30245;51.966;6.292;2022-09-09T10:04:13;23.60;53.70
44537;DHT22;30245;51.966;6.292;2022-09-09T10:06:39;23.80;53.40
44537;DHT22;30245;51.966;6.292;2022-09-09T10:09:29;23.80;53.20
44537;DHT22;30245;51.966;6.292;2022-09-09T10:18:45;24.20;52.50
44537;DHT22;30245;51.966;6.292;2022-09-09T10:32:44;24.30;51.50
44537;DHT22;30245;51.966;6.292;2022-09-09T10:35:33;24.40;51.60
44537;DHT22;30245;51.966;6.292;2022-09-09T10:38:18;24.30;51.60
44537;DHT22;30245;51.966;6.292;2022-09-09T10:46:27;24.40;51.40
44537;DHT22;30245;51.966;6.292;2022-09-09T10:56:26;24.70;51.20
44537;DHT22;30245;51.966;6.292;2022-09-09T10:59:02;24.60;50.50
44537;DHT22;30245;51.966;6.292;2022-09-09T11:04:22;24.50;50.30
44537;DHT22;30245;51.966;6.292;2022-09-09T11:06:51;24.40;50.30
44537;DHT22;30245;51.966;6.292;2022-09-09T11:09:22;24.40;50.50
44537;DHT22;30245;51.966;6.292;2022-09-09T11:11:54;24.40;50.60
44537;DHT22;30245;51.966;6.292;2022-09-09T11:16:58;24.40;50.70
44537;DHT22;30245;51.966;6.292;2022-09-09T11:19:38;24.40;50.70
44537;DHT22;30245;51.966;6.292;2022-09-09T11:22:28;24.30;50.80
44537;DHT22;30245;51.966;6.292;2022-09-09T11:25:10;24.20;51.00
44537;DHT22;30245;51.966;6.292;2022-09-09T11:27:51;24.30;51.10
44537;DHT22;30245;51.966;6.292;2022-09-09T11:33:08;24.50;50.60
44537;DHT22;30245;51.966;6.292;2022-09-09T11:35:52;24.60;50.50
44537;DHT22;30245;51.966;6.292;2022-09-09T11:41:01;24.70;50.40
44537;DHT22;30245;51.966;6.292;2022-09-09T11:43:34;24.70;50.30
44537;DHT22;30245;51.966;6.292;2022-09-09T11:46:05;24.60;50.40
44537;DHT22;30245;51.966;6.292;2022-09-09T11:48:35;24.60;50.10
44537;DHT22;30245;51.966;6.292;2022-09-09T11:53:54;24.30;50.80
44537;DHT22;30245;51.966;6.292;2022-09-09T11:56:34;24.30;51.00
44537;DHT22;30245;51.966;6.292;2022-09-09T11:59:25;24.20;51.20
44537;DHT22;30245;51.966;6.292;2022-09-09T12:01:57;24.20;51.40
44537;DHT22;30245;51.966;6.292;2022-09-09T12:04:37;24.10;51.70
44537;DHT22;30245;51.966;6.292;2022-09-09T12:09:50;24.00;52.00
44537;DHT22;30245;51.966;6.292;2022-09-09T12:15:16;23.50;53.60
44537;DHT22;30245;51.966;6.292;2022-09-09T12:17:51;23.30;54.70
44537;DHT22;30245;51.966;6.292;2022-09-09T12:23:15;23.10;56.00
44537;DHT22;30245;51.966;6.292;2022-09-09T12:31:12;23.10;56.90
44537;DHT22;30245;51.966;6.292;2022-09-09T12:33:44;23.10;57.20
44537;DHT22;30245;51.966;6.292;2022-09-09T12:36:19;23.20;57.00
44537;DHT22;30245;51.966;6.292;2022-09-09T12:38:46;23.30;57.00
44537;DHT22;30245;51.966;6.292;2022-09-09T12:41:26;23.10;57.40
44537;DHT22;30245;51.966;6.292;2022-09-09T12:44:06;23.00;57.90
44537;DHT22;30245;51.966;6.292;2022-09-09T12:46:37;23.00;58.30
44537;DHT22;30245;51.966;6.292;2022-09-09T12:49:18;23.00;58.40
44537;DHT22;30245;51.966;6.292;2022-09-09T12:51:46;22.90;58.50
44537;DHT22;30245;51.966;6.292;2022-09-09T12:54:13;22.90;59.10
44537;DHT22;30245;51.966;6.292;2022-09-09T12:56:45;22.80;59.50
44537;DHT22;30245;51.966;6.292;2022-09-09T12:59:36;22.90;59.70
44537;DHT22;30245;51.966;6.292;2022-09-09T13:02:02;23.00;60.10
44537;DHT22;30245;51.966;6.292;2022-09-09T13:04:27;23.30;60.00
44537;DHT22;30245;51.966;6.292;2022-09-09T13:06:53;23.70;59.40
44537;DHT22;30245;51.966;6.292;2022-09-09T13:09:19;23.90;59.20
44537;DHT22;30245;51.966;6.292;2022-09-09T13:11:50;24.00;58.70
44537;DHT22;30245;51.966;6.292;2022-09-09T13:14:27;24.10;58.20
44537;DHT22;30245;51.966;6.292;2022-09-09T13:16:59;24.20;58.20
44537;DHT22;30245;51.966;6.292;2022-09-09T13:19:25;24.30;58.00
44537;DHT22;30245;51.966;6.292;2022-09-09T13:21:54;24.30;58.00
44537;DHT22;30245;51.966;6.292;2022-09-09T13:24:31;24.40;57.70
44537;DHT22;30245;51.966;6.292;2022-09-09T13:27:03;24.40;57.80
44537;DHT22;30245;51.966;6.292;2022-09-09T13:29:30;24.50;57.70
44537;DHT22;30245;51.966;6.292;2022-09-09T13:32:06;24.50;57.40
44537;DHT22;30245;51.966;6.292;2022-09-09T13:34:34;24.40;56.90
44537;DHT22;30245;51.966;6.292;2022-09-09T13:37:09;24.20;56.90
44537;DHT22;30245;51.966;6.292;2022-09-09T13:39:50;24.00;57.20
44537;DHT22;30245;51.966;6.292;2022-09-09T13:42:28;23.90;57.40
44537;DHT22;30245;51.966;6.292;2022-09-09T13:44:59;24.00;57.30
44537;DHT22;30245;51.966;6.292;2022-09-09T13:47:35;24.10;57.20
44537;DHT22;30245;51.966;6.292;2022-09-09T13:50:22;24.30;56.90
44537;DHT22;30245;51.966;6.292;2022-09-09T13:52:49;24.40;56.90
44537;DHT22;30245;51.966;6.292;2022-09-09T13:55:17;24.50;56.40
44537;DHT22;30245;51.966;6.292;2022-09-09T14:00:17;24.60;55.90
44537;DHT22;30245;51.966;6.292;2022-09-09T14:02:43;24.60;56.00
44537;DHT22;30245;51.966;6.292;2022-09-09T14:05:09;24.70;56.00
44537;DHT22;30245;51.966;6.292;2022-09-09T14:07:38;24.60;55.70
44537;DHT22;30245;51.966;6.292;2022-09-09T14:10:04;24.40;55.80
44537;DHT22;30245;51.966;6.292;2022-09-09T14:12:30;24.50;56.00
44537;DHT22;30245;51.966;6.292;2022-09-09T14:14:56;24.70;55.90
44537;DHT22;30245;51.966;6.292;2022-09-09T14:17:21;24.70;55.50
44537;DHT22;30245;51.966;6.292;2022-09-09T14:19:47;24.70;55.30
44537;DHT22;30245;51.966;6.292;2022-09-09T14:22:13;24.70;55.20
44537;DHT22;30245;51.966;6.292;2022-09-09T14:24:39;24.50;55.00
44537;DHT22;30245;51.966;6.292;2022-09-09T14:27:04;24.50;55.30
44537;DHT22;30245;51.966;6.292;2022-09-09T14:29:30;24.30;55.60
44537;DHT22;30245;51.966;6.292;2022-09-09T14:31:55;24.20;56.00
44537;DHT22;30245;51.966;6.292;2022-09-09T14:34:21;24.10;56.40
44537;DHT22;30245;51.966;6.292;2022-09-09T14:36:46;24.00;56.50
44537;DHT22;30245;51.966;6.292;2022-09-09T14:39:12;24.00;56.70
44537;DHT22;30245;51.966;6.292;2022-09-09T14:41:38;24.00;56.70
44537;DHT22;30245;51.966;6.292;2022-09-09T14:44:03;24.00;56.70
44537;DHT22;30245;51.966;6.292;2022-09-09T14:46:29;24.00;56.80
44537;DHT22;30245;51.966;6.292;2022-09-09T14:48:55;24.00;56.70
44537;DHT22;30245;51.966;6.292;2022-09-09T14:51:23;24.00;56.90
44537;DHT22;30245;51.966;6.292;2022-09-09T14:53:53;24.00;57.40
44537;DHT22;30245;51.966;6.292;2022-09-09T14:56:20;24.10;57.20
44537;DHT22;30245;51.966;6.292;2022-09-09T14:58:47;24.10;57.10
44537;DHT22;30245;51.966;6.292;2022-09-09T15:01:18;24.10;57.40
44537;DHT22;30245;51.966;6.292;2022-09-09T15:03:52;24.00;57.70
44537;DHT22;30245;51.966;6.292;2022-09-09T15:06:19;24.20;57.90
44537;DHT22;30245;51.966;6.292;2022-09-09T15:08:46;24.60;57.50
44537;DHT22;30245;51.966;6.292;2022-09-09T15:11:13;25.20;56.30
44537;DHT22;30245;51.966;6.292;2022-09-09T15:13:40;25.50;55.90
44537;DHT22;30245;51.966;6.292;2022-09-09T15:16:06;26.00;54.90
44537;DHT22;30245;51.966;6.292;2022-09-09T15:18:33;26.30;54.30
44537;DHT22;30245;51.966;6.292;2022-09-09T15:21:00;26.40;53.80
44537;DHT22;30245;51.966;6.292;2022-09-09T15:23:28;26.30;53.60
44537;DHT22;30245;51.966;6.292;2022-09-09T15:25:56;26.10;54.00
44537;DHT22;30245;51.966;6.292;2022-09-09T15:28:22;26.00;54.30
44537;DHT22;30245;51.966;6.292;2022-09-09T15:30:49;25.80;54.20
44537;DHT22;30245;51.966;6.292;2022-09-09T15:33:16;25.90;54.70
44537;DHT22;30245;51.966;6.292;2022-09-09T15:35:41;26.00;54.90
44537;DHT22;30245;51.966;6.292;2022-09-09T15:38:07;26.40;54.20
44537;DHT22;30245;51.966;6.292;2022-09-09T15:40:32;26.50;53.20
44537;DHT22;30245;51.966;6.292;2022-09-09T15:42:58;26.50;53.10
44537;DHT22;30245;51.966;6.292;2022-09-09T15:45:24;26.40;53.10
44537;DHT22;30245;51.966;6.292;2022-09-09T15:47:50;26.20;53.30
44537;DHT22;30245;51.966;6.292;2022-09-09T15:50:15;26.10;53.50
44537;DHT22;30245;51.966;6.292;2022-09-09T15:52:41;25.80;53.60
44537;DHT22;30245;51.966;6.292;2022-09-09T15:55:07;25.70;54.00
44537;DHT22;30245;51.966;6.292;2022-09-09T15:57:34;25.60;54.00
44537;DHT22;30245;51.966;6.292;2022-09-09T16:00:01;25.60;54.00
44537;DHT22;30245;51.966;6.292;2022-09-09T16:02:28;25.70;53.90
44537;DHT22;30245;51.966;6.292;2022-09-09T16:04:53;25.70;53.80
44537;DHT22;30245;51.966;6.292;2022-09-09T16:07:19;25.80;53.50
44537;DHT22;30245;51.966;6.292;2022-09-09T16:09:45;25.80;53.40
44537;DHT22;30245;51.966;6.292;2022-09-09T16:12:11;25.80;53.40
44537;DHT22;30245;51.966;6.292;2022-09-09T16:14:38;25.80;53.20
44537;DHT22;30245;51.966;6.292;2022-09-09T16:17:05;25.70;53.20
44537;DHT22;30245;51.966;6.292;2022-09-09T16:19:31;25.50;53.10
44537;DHT22;30245;51.966;6.292;2022-09-09T16:21:57;25.40;53.40
44537;DHT22;30245;51.966;6.292;2022-09-09T16:24:23;25.20;53.70
44537;DHT22;30245;51.966;6.292;2022-09-09T16:26:53;25.10;53.90
44537;DHT22;30245;51.966;6.292;2022-09-09T16:29:20;25.00;54.10
44537;DHT22;30245;51.966;6.292;2022-09-09T16:31:48;24.90;54.30
44537;DHT22;30245;51.966;6.292;2022-09-09T16:34:16;24.80;54.50
44537;DHT22;30245;51.966;6.292;2022-09-09T16:36:43;24.80;54.70
44537;DHT22;30245;51.966;6.292;2022-09-09T16:39:18;24.80;54.60
44537;DHT22;30245;51.966;6.292;2022-09-09T16:41:45;24.70;54.70
44537;DHT22;30245;51.966;6.292;2022-09-09T16:44:12;24.70;54.80
44537;DHT22;30245;51.966;6.292;2022-09-09T16:46:40;24.60;54.90
44537;DHT22;30245;51.966;6.292;2022-09-09T16:49:07;24.70;54.90
44537;DHT22;30245;51.966;6.292;2022-09-09T16:54:07;24.70;54.80
44537;DHT22;30245;51.966;6.292;2022-09-09T16:56:35;24.70;54.80
44537;DHT22;30245;51.966;6.292;2022-09-09T16:59:04;24.70;54.90
44537;DHT22;30245;51.966;6.292;2022-09-09T17:01:31;24.60;55.30
44537;DHT22;30245;51.966;6.292;2022-09-09T17:04:00;24.40;55.60
44537;DHT22;30245;51.966;6.292;2022-09-09T17:06:31;24.00;56.90
44537;DHT22;30245;51.966;6.292;2022-09-09T17:09:01;23.50;57.80
44537;DHT22;30245;51.966;6.292;2022-09-09T17:11:27;23.20;58.60
44537;DHT22;30245;51.966;6.292;2022-09-09T17:13:54;22.90;59.20
44537;DHT22;30245;51.966;6.292;2022-09-09T17:16:21;22.80;59.70
44537;DHT22;30245;51.966;6.292;2022-09-09T17:18:48;22.90;59.70
44537;DHT22;30245;51.966;6.292;2022-09-09T17:21:17;22.80;59.50
44537;DHT22;30245;51.966;6.292;2022-09-09T17:23:44;22.70;59.60
44537;DHT22;30245;51.966;6.292;2022-09-09T17:26:13;22.60;59.90
44537;DHT22;30245;51.966;6.292;2022-09-09T17:28:41;22.60;60.10
44537;DHT22;30245;51.966;6.292;2022-09-09T17:31:08;22.70;60.20
44537;DHT22;30245;51.966;6.292;2022-09-09T17:33:35;22.60;60.20
44537;DHT22;30245;51.966;6.292;2022-09-09T17:36:10;22.60;60.30
44537;DHT22;30245;51.966;6.292;2022-09-09T17:38:36;22.60;60.50
44537;DHT22;30245;51.966;6.292;2022-09-09T17:43:36;22.50;60.60
44537;DHT22;30245;51.966;6.292;2022-09-09T17:46:17;22.50;60.60
44537;DHT22;30245;51.966;6.292;2022-09-09T17:48:43;22.40;60.80
44537;DHT22;30245;51.966;6.292;2022-09-09T17:51:13;22.40;60.90